Terminal Aerodrome Forecast
Issued by NWS Twin Cities, MN

Home | Current Version | Previous Version | Text Only | Print | Product List | Glossary On
Versions: 1 2 3 4 5 6 7 8 9 10 11 12 13 14 15 16
025
FTUS43 KMPX 221731
TAFSTC
TAF
KSTC 221731Z 2218/2318 24011KT P6SM SKC
     FM230100 18009KT P6SM BKN250
     FM230600 18009KT P6SM BKN090
     FM231100 23008KT P6SM SCT150 WS020/28035KT
     FM231400 29015G23KT P6SM SCT200=

USA.gov is the U.S. government's official web portal to all federal, state and local government web resources and services.